createdAt,value
2023-03-22T00:00:08.149Z,80
2023-03-22T00:01:08.117Z,80
2023-03-22T00:02:08.298Z,80
2023-03-22T00:03:08.679Z,80
2023-03-22T00:04:08.787Z,80
2023-03-22T00:05:07.953Z,80
2023-03-22T00:06:07.926Z,80
2023-03-22T00:07:08.436Z,80
2023-03-22T00:08:08.683Z,80
2023-03-22T00:09:07.840Z,80
2023-03-22T00:10:08.341Z,80
2023-03-22T00:11:08.075Z,80
2023-03-22T00:13:08.912Z,80
2023-03-22T00:14:07.850Z,80
2023-03-22T00:15:08.434Z,80
2023-03-22T00:16:09.010Z,80
2023-03-22T00:18:07.997Z,80
2023-03-22T00:19:08.306Z,80
2023-03-22T00:20:08.690Z,81
2023-03-22T00:21:08.151Z,81
2023-03-22T00:22:08.527Z,81
2023-03-22T00:23:08.594Z,81
2023-03-22T00:24:07.872Z,81
2023-03-22T00:25:08.062Z,81
2023-03-22T00:26:07.965Z,81
2023-03-22T00:27:08.218Z,81
2023-03-22T00:28:08.680Z,81
2023-03-22T00:29:09.159Z,81
2023-03-22T00:31:09.132Z,81
2023-03-22T00:32:08.040Z,81
2023-03-22T00:33:08.140Z,81
2023-03-22T00:34:08.661Z,81
2023-03-22T00:35:08.882Z,81
2023-03-22T00:36:08.181Z,81
2023-03-22T00:37:08.277Z,81
2023-03-22T00:38:08.361Z,81
2023-03-22T00:39:08.695Z,81
2023-03-22T00:40:08.116Z,81
2023-03-22T00:43:08.066Z,81
2023-03-22T00:44:08.268Z,81
2023-03-22T00:45:08.530Z,81
2023-03-22T00:46:09.210Z,81
2023-03-22T00:47:08.032Z,81
2023-03-22T00:48:08.682Z,81
2023-03-22T00:49:08.849Z,81
2023-03-22T00:50:07.967Z,81
2023-03-22T00:51:08.301Z,81
2023-03-22T00:52:08.631Z,81
2023-03-22T00:53:08.841Z,81
2023-03-22T00:54:08.197Z,81
2023-03-22T00:55:08.352Z,81
2023-03-22T00:56:08.476Z,81
2023-03-22T00:57:08.796Z,81
2023-03-22T00:58:08.887Z,81
2023-03-22T00:59:07.963Z,81
2023-03-22T01:00:08.600Z,81
2023-03-22T01:01:08.754Z,81
2023-03-22T01:02:08.653Z,81
2023-03-22T01:03:09.069Z,81
2023-03-22T01:04:07.972Z,81
2023-03-22T01:05:08.317Z,81
2023-03-22T01:06:08.614Z,81
2023-03-22T01:07:07.986Z,81
2023-03-22T01:08:08.058Z,81
2023-03-22T01:09:08.452Z,81
2023-03-22T01:11:07.953Z,81
2023-03-22T01:12:08.366Z,81
2023-03-22T01:13:08.487Z,81
2023-03-22T01:14:07.951Z,81
2023-03-22T01:15:08.032Z,81
2023-03-22T01:16:08.775Z,81
2023-03-22T01:17:08.858Z,81
2023-03-22T01:19:08.503Z,81
2023-03-22T01:20:08.470Z,81
2023-03-22T01:21:08.654Z,81
2023-03-22T01:22:07.919Z,81
2023-03-22T01:23:07.983Z,81
2023-03-22T01:24:08.567Z,81
2023-03-22T01:25:08.888Z,81
2023-03-22T01:26:08.208Z,81
2023-03-22T01:27:08.243Z,81
2023-03-22T01:28:08.383Z,81
2023-03-22T01:29:08.819Z,81
2023-03-22T01:30:07.856Z,81
2023-03-22T01:31:08.683Z,81
2023-03-22T01:32:08.537Z,81
2023-03-22T01:33:08.593Z,81
2023-03-22T01:34:07.858Z,81
2023-03-22T01:35:08.095Z,81
2023-03-22T01:36:08.516Z,81
2023-03-22T01:37:08.752Z,81
2023-03-22T01:38:09.049Z,81
2023-03-22T01:39:08.251Z,81
2023-03-22T01:40:08.668Z,81
2023-03-22T01:41:08.121Z,81
2023-03-22T01:42:08.426Z,81
2023-03-22T01:43:08.662Z,81
2023-03-22T01:44:08.851Z,81
2023-03-22T01:45:07.883Z,81
2023-03-22T01:46:08.291Z,81
2023-03-22T01:47:08.559Z,81
2023-03-22T01:48:08.179Z,81
2023-03-22T01:49:08.515Z,81
2023-03-22T01:50:08.370Z,81
2023-03-22T01:51:08.727Z,81
2023-03-22T01:52:07.908Z,81
2023-03-22T01:53:08.371Z,81
2023-03-22T01:54:08.802Z,81
2023-03-22T01:55:08.118Z,81
2023-03-22T01:56:08.433Z,81
2023-03-22T01:57:08.560Z,81
2023-03-22T01:58:08.748Z,81
2023-03-22T01:59:07.901Z,81
2023-03-22T02:00:07.998Z,81
2023-03-22T02:01:08.661Z,81
2023-03-22T02:02:08.572Z,81
2023-03-22T02:03:08.303Z,81
2023-03-22T02:04:08.576Z,81
2023-03-22T02:05:08.740Z,81
2023-03-22T02:06:08.779Z,81
2023-03-22T02:07:07.615Z,81
2023-03-22T02:08:08.169Z,81
2023-03-22T02:09:08.600Z,81
2023-03-22T02:12:08.487Z,81
2023-03-22T02:14:07.864Z,81
2023-03-22T02:15:08.168Z,81
2023-03-22T02:16:08.602Z,81
2023-03-22T02:17:08.514Z,81
2023-03-22T02:18:08.017Z,81
2023-03-22T02:19:08.338Z,81
2023-03-22T02:20:08.759Z,81
2023-03-22T02:21:08.850Z,81
2023-03-22T02:22:08.013Z,81
2023-03-22T02:23:08.482Z,81
2023-03-22T02:24:08.744Z,81
2023-03-22T02:25:07.973Z,81
2023-03-22T02:27:08.371Z,81
2023-03-22T02:28:08.675Z,81
2023-03-22T02:29:08.759Z,81
2023-03-22T02:30:08.335Z,81
2023-03-22T02:31:08.614Z,81
2023-03-22T02:32:08.640Z,81
2023-03-22T02:33:08.160Z,81
2023-03-22T02:34:08.305Z,81
2023-03-22T02:35:08.721Z,81
2023-03-22T02:36:08.343Z,81
2023-03-22T02:37:08.839Z,81
2023-03-22T02:38:07.932Z,81
2023-03-22T02:39:08.334Z,81
2023-03-22T02:40:08.713Z,81
2023-03-22T02:41:08.182Z,81
2023-03-22T02:42:08.340Z,81
2023-03-22T02:43:08.642Z,81
2023-03-22T02:44:08.964Z,81
2023-03-22T02:45:08.479Z,81
2023-03-22T02:46:08.507Z,81
2023-03-22T02:47:08.583Z,81
2023-03-22T02:48:08.373Z,81
2023-03-22T02:49:08.285Z,81
2023-03-22T02:51:08.402Z,81
2023-03-22T02:52:08.812Z,81
2023-03-22T02:53:08.076Z,81
2023-03-22T02:54:08.159Z,81
2023-03-22T02:55:08.334Z,81
2023-03-22T02:56:08.120Z,81
2023-03-22T02:57:08.525Z,81
2023-03-22T02:58:08.643Z,81
2023-03-22T02:59:08.732Z,81
2023-03-22T03:00:07.968Z,81
2023-03-22T03:01:08.716Z,81
2023-03-22T03:02:09.043Z,81
2023-03-22T03:03:07.908Z,81
2023-03-22T03:04:08.274Z,81
2023-03-22T03:05:08.885Z,81
2023-03-22T03:06:08.535Z,81
2023-03-22T03:07:08.414Z,81
2023-03-22T03:08:07.938Z,81
2023-03-22T03:09:08.098Z,81
2023-03-22T03:10:08.347Z,81
2023-03-22T03:11:08.221Z,81
2023-03-22T03:12:08.536Z,80
2023-03-22T03:13:08.651Z,81
2023-03-22T03:14:08.032Z,80
2023-03-22T03:15:08.123Z,80
2023-03-22T03:16:08.885Z,80
2023-03-22T03:17:08.003Z,80
2023-03-22T03:18:08.340Z,80
2023-03-22T03:19:08.474Z,80
2023-03-22T03:20:07.793Z,80
2023-03-22T03:21:08.098Z,80
2023-03-22T03:22:08.609Z,80
2023-03-22T03:23:07.765Z,80
2023-03-22T03:24:08.467Z,80
2023-03-22T03:25:08.687Z,80
2023-03-22T03:26:08.488Z,80
2023-03-22T03:27:08.977Z,80
2023-03-22T03:28:08.050Z,80
2023-03-22T03:29:08.232Z,80
2023-03-22T03:31:08.916Z,80
2023-03-22T03:32:08.170Z,80
2023-03-22T03:33:08.502Z,80
2023-03-22T03:34:08.722Z,80
2023-03-22T03:35:08.026Z,80
2023-03-22T03:36:08.149Z,80
2023-03-22T03:37:08.369Z,80
2023-03-22T03:38:08.453Z,80
2023-03-22T03:39:08.666Z,80
2023-03-22T03:40:08.935Z,80
2023-03-22T03:41:08.158Z,80
2023-03-22T03:42:08.339Z,80
2023-03-22T03:43:08.835Z,80
2023-03-22T03:44:07.818Z,80
2023-03-22T03:45:08.338Z,80
2023-03-22T03:46:08.397Z,80
2023-03-22T03:47:08.096Z,80
2023-03-22T03:48:09.590Z,81
2023-03-22T03:49:08.046Z,81
2023-03-22T03:51:08.581Z,81
2023-03-22T03:52:07.874Z,81
2023-03-22T03:53:08.208Z,81
2023-03-22T03:54:08.252Z,81
2023-03-22T03:55:08.991Z,81
2023-03-22T03:56:08.210Z,81
2023-03-22T03:57:10.298Z,81
2023-03-22T03:59:07.910Z,81
2023-03-22T04:00:08.208Z,81
2023-03-22T04:01:08.318Z,81
2023-03-22T04:02:09.230Z,81
2023-03-22T04:03:08.016Z,81
2023-03-22T04:04:08.373Z,81
2023-03-22T04:05:08.369Z,81
2023-03-22T04:06:08.499Z,81
2023-03-22T04:08:08.094Z,81
2023-03-22T04:09:08.314Z,81
2023-03-22T04:10:08.608Z,81
2023-03-22T04:11:08.358Z,81
2023-03-22T04:12:08.583Z,81
2023-03-22T04:13:08.820Z,81
2023-03-22T04:14:08.159Z,81
2023-03-22T04:15:08.608Z,81
2023-03-22T04:16:08.716Z,80
2023-03-22T04:17:07.930Z,80
2023-03-22T04:18:08.116Z,80
2023-03-22T04:19:08.695Z,80
2023-03-22T04:20:10.240Z,81
2023-03-22T04:21:08.003Z,80
2023-03-22T04:23:08.495Z,80
2023-03-22T04:25:07.971Z,80
2023-03-22T04:26:08.217Z,80
2023-03-22T04:27:08.410Z,80
2023-03-22T04:28:08.636Z,80
2023-03-22T04:29:08.959Z,80
2023-03-22T04:30:08.106Z,81
2023-03-22T04:31:08.626Z,81
2023-03-22T04:32:08.670Z,81
2023-03-22T04:33:08.048Z,81
2023-03-22T04:34:08.302Z,81
2023-03-22T04:36:10.712Z,81
2023-03-22T04:37:08.135Z,81
2023-03-22T04:38:08.474Z,81
2023-03-22T04:39:08.753Z,81
2023-03-22T04:41:08.333Z,81
2023-03-22T04:42:08.596Z,81
2023-03-22T04:43:07.724Z,81
2023-03-22T04:44:08.533Z,81
2023-03-22T04:45:08.673Z,81
2023-03-22T04:46:08.281Z,81
2023-03-22T04:47:08.436Z,81
2023-03-22T04:48:08.471Z,81
2023-03-22T04:49:08.809Z,81
2023-03-22T04:50:08.115Z,81
2023-03-22T04:51:08.460Z,81
2023-03-22T04:52:08.635Z,81
2023-03-22T04:53:07.952Z,81
2023-03-22T04:54:08.209Z,81
2023-03-22T04:55:08.610Z,81
2023-03-22T04:56:08.994Z,81
2023-03-22T04:57:08.072Z,81
2023-03-22T04:58:08.387Z,81
2023-03-22T04:59:08.541Z,81
2023-03-22T05:00:08.722Z,81
2023-03-22T05:01:08.913Z,81
2023-03-22T05:02:08.233Z,82
2023-03-22T05:03:08.532Z,82
2023-03-22T05:05:08.297Z,82
2023-03-22T05:06:08.602Z,82
2023-03-22T05:07:08.833Z,82
2023-03-22T05:08:07.942Z,82
2023-03-22T05:09:08.190Z,82
2023-03-22T05:10:08.732Z,82
2023-03-22T05:11:07.826Z,82
2023-03-22T05:12:08.360Z,82
2023-03-22T05:13:08.084Z,82
2023-03-22T05:14:08.692Z,82
2023-03-22T05:15:08.620Z,82
2023-03-22T05:16:09.127Z,82
2023-03-22T05:17:08.205Z,82
2023-03-22T05:18:08.549Z,82
2023-03-22T05:19:08.807Z,82
2023-03-22T05:20:07.936Z,82
2023-03-22T05:21:08.071Z,82
2023-03-22T05:22:08.014Z,82
2023-03-22T05:23:08.647Z,82
2023-03-22T05:24:07.842Z,82
2023-03-22T05:25:08.049Z,82
2023-03-22T05:26:08.550Z,83
2023-03-22T05:27:08.080Z,83
2023-03-22T05:28:08.086Z,83
2023-03-22T05:29:08.335Z,83
2023-03-22T05:30:08.627Z,83
2023-03-22T05:32:08.227Z,83
2023-03-22T05:33:08.559Z,83
2023-03-22T05:34:08.794Z,83
2023-03-22T05:35:08.081Z,83
2023-03-22T05:36:07.941Z,83
2023-03-22T05:37:08.438Z,83
2023-03-22T05:38:08.589Z,83
2023-03-22T05:39:07.765Z,83
2023-03-22T05:40:08.371Z,83
2023-03-22T05:41:08.801Z,83
2023-03-22T05:42:07.954Z,83
2023-03-22T05:43:08.080Z,83
2023-03-22T05:44:08.392Z,83
2023-03-22T05:45:08.957Z,83
2023-03-22T05:46:08.444Z,83
2023-03-22T05:47:09.177Z,83
2023-03-22T05:48:08.361Z,83
2023-03-22T05:49:09.647Z,83
2023-03-22T05:50:08.668Z,83
2023-03-22T05:51:08.504Z,83
2023-03-22T05:52:08.702Z,83
2023-03-22T05:53:07.743Z,83
2023-03-22T05:54:08.499Z,83
2023-03-22T05:55:08.588Z,83
2023-03-22T05:56:08.949Z,83
2023-03-22T05:57:08.211Z,83
2023-03-22T05:58:07.993Z,83
2023-03-22T06:00:08.691Z,83
2023-03-22T06:01:08.259Z,83
2023-03-22T06:02:08.697Z,83
2023-03-22T06:03:08.948Z,83
2023-03-22T06:04:08.071Z,83
2023-03-22T06:05:08.161Z,83
2023-03-22T06:06:08.335Z,83
2023-03-22T06:07:08.690Z,83
2023-03-22T06:08:07.955Z,83
2023-03-22T06:09:22.439Z,83
2023-03-22T06:10:08.207Z,83
2023-03-22T06:11:08.452Z,83
2023-03-22T06:12:08.647Z,83
2023-03-22T06:13:08.903Z,83
2023-03-22T06:14:08.264Z,83
2023-03-22T06:15:08.556Z,83
2023-03-22T06:16:07.887Z,83
2023-03-22T06:17:08.159Z,83
2023-03-22T06:18:08.242Z,83
2023-03-22T06:19:08.649Z,83
2023-03-22T06:20:08.253Z,83
2023-03-22T06:21:08.330Z,82
2023-03-22T06:22:08.794Z,82
2023-03-22T06:23:07.828Z,82
2023-03-22T06:24:08.049Z,82
2023-03-22T06:25:08.853Z,82
2023-03-22T06:26:07.672Z,82
2023-03-22T06:27:08.215Z,82
2023-03-22T06:30:08.913Z,82
2023-03-22T06:31:08.280Z,82
2023-03-22T06:32:08.670Z,82
2023-03-22T06:33:07.789Z,82
2023-03-22T06:34:08.180Z,82
2023-03-22T06:35:08.317Z,82
2023-03-22T06:36:08.670Z,81
2023-03-22T06:37:08.637Z,81
2023-03-22T06:38:08.152Z,81
2023-03-22T06:39:08.154Z,81
2023-03-22T06:40:08.471Z,81
2023-03-22T06:41:08.087Z,81
2023-03-22T06:42:08.416Z,81
2023-03-22T06:43:12.987Z,81
2023-03-22T06:44:08.047Z,81
2023-03-22T06:45:08.315Z,81
2023-03-22T06:46:09.008Z,81
2023-03-22T06:47:07.868Z,81
2023-03-22T06:48:08.272Z,81
2023-03-22T06:49:07.990Z,81
2023-03-22T06:50:08.613Z,81
2023-03-22T06:51:08.568Z,81
2023-03-22T06:52:08.839Z,80
2023-03-22T06:53:08.164Z,80
2023-03-22T06:55:08.573Z,80
2023-03-22T06:56:08.779Z,80
2023-03-22T06:57:07.941Z,80
2023-03-22T06:58:07.921Z,79
2023-03-22T06:59:08.333Z,80
2023-03-22T07:00:08.684Z,80
2023-03-22T07:01:08.174Z,80
2023-03-22T07:02:08.048Z,79
2023-03-22T07:03:08.410Z,79
2023-03-22T07:04:08.727Z,79
2023-03-22T07:05:08.526Z,79
2023-03-22T07:06:08.984Z,78
2023-03-22T07:07:08.256Z,78
2023-03-22T07:08:08.489Z,78
2023-03-22T07:09:07.928Z,78
2023-03-22T07:10:08.438Z,78
2023-03-22T07:11:09.166Z,78
2023-03-22T07:12:08.843Z,78
2023-03-22T07:13:08.225Z,78
2023-03-22T07:14:08.305Z,78
2023-03-22T07:15:08.936Z,77
2023-03-22T07:16:08.478Z,77
2023-03-22T07:17:08.354Z,77
2023-03-22T07:18:08.813Z,76
2023-03-22T07:19:07.860Z,76
2023-03-22T07:20:08.417Z,76
2023-03-22T07:22:08.606Z,76
2023-03-22T07:23:08.846Z,76
2023-03-22T07:24:08.054Z,75
2023-03-22T07:25:08.431Z,76
2023-03-22T07:26:08.366Z,76
2023-03-22T07:27:08.531Z,76
2023-03-22T07:28:08.954Z,75
2023-03-22T07:29:08.156Z,75
2023-03-22T07:30:10.416Z,75
2023-03-22T07:31:08.708Z,75
2023-03-22T07:32:08.317Z,75
2023-03-22T07:33:07.985Z,75
2023-03-22T07:34:08.416Z,75
2023-03-22T07:35:08.724Z,75
2023-03-22T07:37:07.758Z,74
2023-03-22T07:38:08.117Z,74
2023-03-22T07:39:08.782Z,74
2023-03-22T07:40:08.915Z,74
2023-03-22T07:42:08.282Z,74
2023-03-22T07:43:08.616Z,74
2023-03-22T07:44:22.913Z,73
2023-03-22T07:45:08.755Z,73
2023-03-22T07:47:07.932Z,73
2023-03-22T07:48:08.578Z,73
2023-03-22T07:49:08.584Z,73
2023-03-22T07:50:08.093Z,73
2023-03-22T07:51:08.045Z,72
2023-03-22T07:52:08.362Z,72
2023-03-22T07:53:08.754Z,72
2023-03-22T07:54:09.968Z,72
2023-03-22T07:55:08.082Z,73
2023-03-22T07:56:08.729Z,73
2023-03-22T07:57:08.616Z,73
2023-03-22T07:58:08.669Z,72
2023-03-22T07:59:08.394Z,72
2023-03-22T08:00:08.114Z,72
2023-03-22T08:01:08.477Z,72
2023-03-22T08:02:08.136Z,72
2023-03-22T08:03:08.418Z,72
2023-03-22T08:04:08.284Z,72
2023-03-22T08:05:08.683Z,72
2023-03-22T08:06:08.185Z,71
2023-03-22T08:07:08.523Z,71
2023-03-22T08:08:08.659Z,71
2023-03-22T08:09:08.260Z,71
2023-03-22T08:10:08.816Z,71
2023-03-22T08:11:08.372Z,71
2023-03-22T08:12:09.007Z,71
2023-03-22T08:13:08.194Z,71
2023-03-22T08:14:08.222Z,70
2023-03-22T08:15:09.052Z,70
2023-03-22T08:16:08.710Z,70
2023-03-22T08:17:09.061Z,70
2023-03-22T08:19:08.135Z,70
2023-03-22T08:20:08.549Z,70
2023-03-22T08:21:08.800Z,70
2023-03-22T08:22:07.914Z,69
2023-03-22T08:23:08.159Z,69
2023-03-22T08:24:08.290Z,69
2023-03-22T08:25:08.805Z,69
2023-03-22T08:26:08.808Z,69
2023-03-22T08:27:08.069Z,69
2023-03-22T08:28:08.297Z,69
2023-03-22T08:29:08.504Z,69
2023-03-22T08:30:08.990Z,69
2023-03-22T08:31:07.848Z,69
2023-03-22T08:32:08.585Z,69
2023-03-22T08:33:08.382Z,69
2023-03-22T08:34:08.748Z,69
2023-03-22T08:35:08.037Z,69
2023-03-22T08:36:08.436Z,68
2023-03-22T08:37:08.355Z,68
2023-03-22T08:38:07.570Z,68
2023-03-22T08:39:08.122Z,68
2023-03-22T08:40:08.738Z,68
2023-03-22T08:41:08.100Z,68
2023-03-22T08:42:08.310Z,67
2023-03-22T08:43:08.853Z,67
2023-03-22T08:44:08.219Z,67
2023-03-22T08:45:08.663Z,67
2023-03-22T08:46:08.061Z,67
2023-03-22T08:47:09.403Z,66
2023-03-22T08:48:08.562Z,66
2023-03-22T08:49:08.403Z,66
2023-03-22T08:51:08.028Z,66
2023-03-22T08:52:08.259Z,66
2023-03-22T08:53:08.420Z,65
2023-03-22T08:54:08.564Z,65
2023-03-22T08:55:07.984Z,65
2023-03-22T08:56:08.217Z,65
2023-03-22T08:57:08.399Z,65
2023-03-22T08:58:08.632Z,65
2023-03-22T08:59:07.989Z,64
2023-03-22T09:00:08.454Z,65
2023-03-22T09:01:09.056Z,65
2023-03-22T09:02:09.135Z,65
2023-03-22T09:03:08.095Z,64
2023-03-22T09:04:10.598Z,64
2023-03-22T09:05:08.545Z,64
2023-03-22T09:06:08.004Z,64
2023-03-22T09:07:08.179Z,64
2023-03-22T09:08:20.736Z,63
2023-03-22T09:09:08.629Z,63
2023-03-22T09:10:08.872Z,63
2023-03-22T09:11:07.960Z,63
2023-03-22T09:12:08.308Z,62
2023-03-22T09:13:08.588Z,62
2023-03-22T09:14:07.883Z,62
2023-03-22T09:15:08.231Z,62
2023-03-22T09:16:08.743Z,62
2023-03-22T09:19:08.234Z,61
2023-03-22T09:20:18.626Z,61
2023-03-22T09:21:08.443Z,61
2023-03-22T09:22:07.952Z,61
2023-03-22T09:23:08.187Z,61
2023-03-22T09:24:08.377Z,60
2023-03-22T09:25:10.391Z,60
2023-03-22T09:26:08.285Z,60
2023-03-22T09:27:08.686Z,60
2023-03-22T09:28:09.056Z,60
2023-03-22T09:29:07.951Z,60
2023-03-22T09:30:08.293Z,60
2023-03-22T09:31:09.075Z,60
2023-03-22T09:32:08.115Z,59
2023-03-22T09:33:08.295Z,59
2023-03-22T09:34:08.509Z,59
2023-03-22T09:36:08.084Z,58
2023-03-22T09:37:08.433Z,58
2023-03-22T09:38:08.681Z,58
2023-03-22T09:39:08.810Z,57
2023-03-22T09:40:07.688Z,57
2023-03-22T09:41:08.261Z,57
2023-03-22T09:42:08.571Z,57
2023-03-22T09:43:08.836Z,57
2023-03-22T09:44:08.110Z,57
2023-03-22T09:45:08.234Z,57
2023-03-22T09:46:08.643Z,57
2023-03-22T09:47:08.660Z,57
2023-03-22T09:48:08.134Z,57
2023-03-22T09:51:08.568Z,56
2023-03-22T09:52:08.987Z,56
2023-03-22T09:53:08.157Z,56
2023-03-22T09:54:08.404Z,56
2023-03-22T09:55:08.521Z,56
2023-03-22T09:57:08.044Z,56
2023-03-22T09:58:08.375Z,56
2023-03-22T09:59:08.615Z,56
2023-03-22T10:00:08.114Z,55
2023-03-22T10:01:09.010Z,55
2023-03-22T10:03:08.677Z,55
2023-03-22T10:04:08.357Z,55
2023-03-22T10:05:08.372Z,55
2023-03-22T10:06:08.564Z,55
2023-03-22T10:07:08.888Z,54
2023-03-22T10:08:08.088Z,54
2023-03-22T10:10:08.554Z,54
2023-03-22T10:11:08.666Z,54
2023-03-22T10:13:08.267Z,54
2023-03-22T10:14:08.450Z,54
2023-03-22T10:15:08.797Z,53
2023-03-22T10:16:08.234Z,53
2023-03-22T10:17:08.238Z,53
2023-03-22T10:18:08.367Z,53
2023-03-22T10:19:08.849Z,53
2023-03-22T10:20:08.324Z,52
2023-03-22T10:21:08.308Z,52
2023-03-22T10:22:08.636Z,52
2023-03-22T10:23:08.875Z,52
2023-03-22T10:24:07.754Z,51
2023-03-22T10:25:08.243Z,52
2023-03-22T10:26:08.388Z,52
2023-03-22T10:28:08.142Z,51
2023-03-22T10:29:10.141Z,51
2023-03-22T10:30:08.635Z,51
2023-03-22T10:31:12.033Z,51
2023-03-22T10:32:08.038Z,51
2023-03-22T10:33:08.373Z,51
2023-03-22T10:34:08.789Z,51
2023-03-22T10:35:08.011Z,50
2023-03-22T10:37:08.454Z,49
2023-03-22T10:38:08.736Z,49
2023-03-22T10:39:07.809Z,50
2023-03-22T10:40:07.984Z,50
2023-03-22T10:41:08.530Z,50
2023-03-22T10:42:08.869Z,50
2023-03-22T10:43:08.188Z,50
2023-03-22T10:45:08.807Z,50
2023-03-22T10:46:08.015Z,50
2023-03-22T10:47:08.477Z,49
2023-03-22T10:48:08.741Z,49
2023-03-22T10:50:08.441Z,48
2023-03-22T10:51:08.173Z,49
2023-03-22T10:52:08.727Z,49
2023-03-22T10:53:08.846Z,49
2023-03-22T10:54:08.154Z,49
2023-03-22T10:55:10.872Z,49
2023-03-22T10:56:07.997Z,48
2023-03-22T10:57:08.122Z,47
2023-03-22T10:58:08.474Z,47
2023-03-22T10:59:07.844Z,47
2023-03-22T11:00:07.991Z,47
2023-03-22T11:01:08.890Z,47
2023-03-22T11:02:09.219Z,48
2023-03-22T11:03:09.288Z,48
2023-03-22T11:04:08.284Z,48
2023-03-22T11:05:08.498Z,48
2023-03-22T11:06:08.896Z,48
2023-03-22T11:07:07.975Z,47
2023-03-22T11:08:08.527Z,47
2023-03-22T11:09:08.754Z,47
2023-03-22T11:10:07.979Z,47
2023-03-22T11:11:08.606Z,47
2023-03-22T11:12:08.075Z,47
2023-03-22T11:13:08.125Z,47
2023-03-22T11:14:08.174Z,47
2023-03-22T11:15:08.599Z,47
2023-03-22T11:16:09.005Z,47
2023-03-22T11:17:08.437Z,46
2023-03-22T11:18:08.573Z,46
2023-03-22T11:19:08.744Z,46
2023-03-22T11:20:10.146Z,47
2023-03-22T11:21:08.469Z,47
2023-03-22T11:23:07.968Z,47
2023-03-22T11:24:08.283Z,46
2023-03-22T11:25:08.383Z,46
2023-03-22T11:26:07.922Z,46
2023-03-22T11:27:08.370Z,47
2023-03-22T11:28:08.550Z,47
2023-03-22T11:29:08.722Z,47
2023-03-22T11:30:07.956Z,46
2023-03-22T11:31:08.316Z,46
2023-03-22T11:32:09.106Z,46
2023-03-22T11:33:08.467Z,46
2023-03-22T11:34:08.150Z,46
2023-03-22T11:35:08.552Z,46
2023-03-22T11:36:09.025Z,46
2023-03-22T11:37:08.826Z,46
2023-03-22T11:38:08.171Z,46
2023-03-22T11:39:08.482Z,46
2023-03-22T11:40:08.744Z,46
2023-03-22T11:41:08.034Z,46
2023-03-22T11:42:08.623Z,46
2023-03-22T11:43:08.622Z,46
2023-03-22T11:44:07.822Z,46
2023-03-22T11:45:08.117Z,46
2023-03-22T11:46:08.577Z,46
2023-03-22T11:47:08.615Z,45
2023-03-22T11:48:08.514Z,45
2023-03-22T11:49:08.493Z,45
2023-03-22T11:50:10.501Z,46
2023-03-22T11:51:08.198Z,45
2023-03-22T11:52:10.450Z,45
2023-03-22T11:53:08.687Z,45
2023-03-22T11:54:07.877Z,44
2023-03-22T11:55:08.077Z,45
2023-03-22T11:56:08.363Z,45
2023-03-22T11:57:08.225Z,45
2023-03-22T11:58:07.971Z,45
2023-03-22T11:59:08.599Z,45
2023-03-22T12:00:08.414Z,45
2023-03-22T12:01:08.236Z,45
2023-03-22T12:02:08.148Z,45
2023-03-22T12:03:08.651Z,45
2023-03-22T12:04:09.218Z,44
2023-03-22T12:05:08.518Z,45
2023-03-22T12:06:08.955Z,44
2023-03-22T12:07:08.119Z,44
2023-03-22T12:08:08.107Z,44
2023-03-22T12:09:08.697Z,45
2023-03-22T12:10:08.868Z,45
2023-03-22T12:11:08.120Z,45
2023-03-22T12:12:08.745Z,45
2023-03-22T12:13:08.738Z,45
2023-03-22T12:14:08.360Z,45
2023-03-22T12:15:08.183Z,45
2023-03-22T12:16:09.235Z,45
2023-03-22T12:18:11.485Z,45
2023-03-22T12:19:08.605Z,45
2023-03-22T12:20:09.006Z,44
2023-03-22T12:21:08.256Z,44
2023-03-22T12:22:08.608Z,44
2023-03-22T12:23:08.837Z,44
2023-03-22T12:24:07.999Z,44
2023-03-22T12:25:08.356Z,44
2023-03-22T12:26:08.363Z,44
2023-03-22T12:27:08.767Z,44
2023-03-22T12:28:08.296Z,44
2023-03-22T12:29:08.522Z,44
2023-03-22T12:30:08.746Z,44
2023-03-22T12:31:08.206Z,44
2023-03-22T12:32:08.119Z,43
2023-03-22T12:33:08.525Z,43
2023-03-22T12:36:08.453Z,42
2023-03-22T12:37:08.360Z,42
2023-03-22T12:38:08.798Z,42
2023-03-22T12:39:08.845Z,42
2023-03-22T12:40:08.180Z,42
2023-03-22T12:41:08.265Z,41
2023-03-22T12:43:08.829Z,41
2023-03-22T12:44:08.020Z,41
2023-03-22T12:45:11.997Z,41
2023-03-22T12:46:08.291Z,41
2023-03-22T12:47:09.041Z,42
2023-03-22T12:48:08.574Z,41
2023-03-22T12:49:08.464Z,41
2023-03-22T12:50:08.451Z,41
2023-03-22T12:51:08.522Z,41
2023-03-22T12:52:08.533Z,41
2023-03-22T12:53:08.748Z,41
2023-03-22T12:54:08.591Z,41
2023-03-22T12:55:08.352Z,41
2023-03-22T12:56:08.297Z,41
2023-03-22T12:57:08.688Z,41
2023-03-22T12:58:08.797Z,41
2023-03-22T12:59:08.178Z,41
2023-03-22T13:00:08.488Z,41
2023-03-22T13:01:09.173Z,42
2023-03-22T13:02:07.802Z,41
2023-03-22T13:03:11.407Z,41
2023-03-22T13:04:09.320Z,40
2023-03-22T13:05:07.916Z,41
2023-03-22T13:07:08.382Z,41
2023-03-22T13:08:08.740Z,42
2023-03-22T13:09:07.896Z,42
2023-03-22T13:10:08.264Z,42
2023-03-22T13:11:08.549Z,42
2023-03-22T13:12:08.822Z,42
2023-03-22T13:13:08.163Z,42
2023-03-22T13:14:08.416Z,42
2023-03-22T13:15:08.788Z,42
2023-03-22T13:16:09.353Z,42
2023-03-22T13:17:08.285Z,42
2023-03-22T13:18:08.684Z,42
2023-03-22T13:19:08.676Z,42
2023-03-22T13:20:08.667Z,42
2023-03-22T13:21:08.087Z,42
2023-03-22T13:23:08.665Z,42
2023-03-22T13:24:07.890Z,42
2023-03-22T13:25:08.052Z,43
2023-03-22T13:26:08.605Z,42
2023-03-22T13:27:08.660Z,42
2023-03-22T13:28:07.821Z,42
2023-03-22T13:29:08.007Z,42
2023-03-22T13:30:08.478Z,42
2023-03-22T13:31:08.638Z,42
2023-03-22T13:32:09.392Z,42
2023-03-22T13:33:09.112Z,42
2023-03-22T13:34:08.560Z,42
2023-03-22T13:35:07.990Z,42
2023-03-22T13:36:11.016Z,42
2023-03-22T13:37:08.421Z,42
2023-03-22T13:38:08.641Z,42
2023-03-22T13:39:07.642Z,42
2023-03-22T13:40:07.927Z,42
2023-03-22T13:41:08.354Z,42
2023-03-22T13:42:08.569Z,42
2023-03-22T13:43:08.047Z,42
2023-03-22T13:44:09.527Z,42
2023-03-22T13:45:08.352Z,42
2023-03-22T13:46:09.069Z,42
2023-03-22T13:47:07.964Z,42
2023-03-22T13:48:08.800Z,42
2023-03-22T13:49:08.801Z,42
2023-03-22T13:50:11.553Z,42
2023-03-22T13:51:08.113Z,42
2023-03-22T13:52:08.178Z,42
2023-03-22T13:53:08.331Z,41
2023-03-22T13:54:08.553Z,41
2023-03-22T13:55:08.998Z,41
2023-03-22T13:56:08.549Z,41
2023-03-22T13:57:08.599Z,41
2023-03-22T13:58:07.874Z,41
2023-03-22T13:59:08.179Z,41
2023-03-22T14:00:22.208Z,41
2023-03-22T14:01:08.090Z,41
2023-03-22T14:02:08.548Z,41
2023-03-22T14:03:09.399Z,41
2023-03-22T14:04:08.160Z,41
2023-03-22T14:05:08.328Z,41
2023-03-22T14:06:08.583Z,41
2023-03-22T14:07:08.554Z,41
2023-03-22T14:08:08.946Z,41
2023-03-22T14:09:08.108Z,41
2023-03-22T14:10:08.458Z,41
2023-03-22T14:11:08.305Z,41
2023-03-22T14:12:08.469Z,41
2023-03-22T14:14:08.968Z,41
2023-03-22T14:15:08.184Z,42
2023-03-22T14:16:08.971Z,42
2023-03-22T14:17:07.950Z,42
2023-03-22T14:18:08.378Z,42
2023-03-22T14:19:08.589Z,42
2023-03-22T14:20:08.837Z,42
2023-03-22T14:21:08.822Z,42
